sensor_id;sensor_type;location;lat;lon;timestamp;temperature;humidity
30047;DHT22;16878;52.542;13.426;2023-02-01T00:01:55;4.60;99.90
30047;DHT22;16878;52.542;13.426;2023-02-01T00:04:21;4.70;99.90
30047;DHT22;16878;52.542;13.426;2023-02-01T00:06:50;4.80;99.90
30047;DHT22;16878;52.542;13.426;2023-02-01T00:09:16;4.70;99.90
30047;DHT22;16878;52.542;13.426;2023-02-01T00:11:44;4.60;99.90
30047;DHT22;16878;52.542;13.426;2023-02-01T00:14:10;4.50;99.90
30047;DHT22;16878;52.542;13.426;2023-02-01T00:16:36;4.40;99.90
30047;DHT22;16878;52.542;13.426;2023-02-01T00:19:03;4.40;99.90
30047;DHT22;16878;52.542;13.426;2023-02-01T00:21:29;4.30;99.90
30047;DHT22;16878;52.542;13.426;2023-02-01T00:23:55;4.30;99.90
30047;DHT22;16878;52.542;13.426;2023-02-01T00:26:35;4.30;99.90
30047;DHT22;16878;52.542;13.426;2023-02-01T00:29:03;4.30;99.90
30047;DHT22;16878;52.542;13.426;2023-02-01T00:31:30;4.30;99.90
30047;DHT22;16878;52.542;13.426;2023-02-01T00:33:56;4.30;99.90
30047;DHT22;16878;52.542;13.426;2023-02-01T00:36:21;4.30;99.90
30047;DHT22;16878;52.542;13.426;2023-02-01T00:38:47;4.40;99.90
30047;DHT22;16878;52.542;13.426;2023-02-01T00:41:18;4.30;99.90
30047;DHT22;16878;52.542;13.426;2023-02-01T00:43:45;4.30;99.90
30047;DHT22;16878;52.542;13.426;2023-02-01T00:46:12;4.30;99.90
30047;DHT22;16878;52.542;13.426;2023-02-01T00:48:38;4.30;99.90
30047;DHT22;16878;52.542;13.426;2023-02-01T00:51:06;4.30;99.90
30047;DHT22;16878;52.542;13.426;2023-02-01T00:53:33;4.30;99.90
30047;DHT22;16878;52.542;13.426;2023-02-01T00:56:02;4.40;99.90
30047;DHT22;16878;52.542;13.426;2023-02-01T00:58:27;4.50;99.90
30047;DHT22;16878;52.542;13.426;2023-02-01T01:01:15;4.60;99.90
30047;DHT22;16878;52.542;13.426;2023-02-01T01:03:44;4.70;99.90
30047;DHT22;16878;52.542;13.426;2023-02-01T01:06:15;4.70;99.90
30047;DHT22;16878;52.542;13.426;2023-02-01T01:08:42;4.50;99.90
30047;DHT22;16878;52.542;13.426;2023-02-01T01:11:14;4.40;99.90
30047;DHT22;16878;52.542;13.426;2023-02-01T01:13:40;4.40;99.90
30047;DHT22;16878;52.542;13.426;2023-02-01T01:16:08;4.40;99.90
30047;DHT22;16878;52.542;13.426;2023-02-01T01:18:34;4.40;99.90
30047;DHT22;16878;52.542;13.426;2023-02-01T01:21:01;4.30;99.90
30047;DHT22;16878;52.542;13.426;2023-02-01T01:23:27;4.30;99.90
30047;DHT22;16878;52.542;13.426;2023-02-01T01:25:53;4.30;99.90
30047;DHT22;16878;52.542;13.426;2023-02-01T01:28:19;4.30;99.90
30047;DHT22;16878;52.542;13.426;2023-02-01T01:30:45;4.30;99.90
30047;DHT22;16878;52.542;13.426;2023-02-01T01:33:11;4.40;99.90
30047;DHT22;16878;52.542;13.426;2023-02-01T01:35:36;4.30;99.90
30047;DHT22;16878;52.542;13.426;2023-02-01T01:38:02;4.40;99.90
30047;DHT22;16878;52.542;13.426;2023-02-01T01:40:28;4.40;99.90
30047;DHT22;16878;52.542;13.426;2023-02-01T01:42:55;4.40;99.90
30047;DHT22;16878;52.542;13.426;2023-02-01T01:48:16;4.30;99.90
30047;DHT22;16878;52.542;13.426;2023-02-01T01:50:54;4.30;99.90
30047;DHT22;16878;52.542;13.426;2023-02-01T01:53:30;4.20;99.90
30047;DHT22;16878;52.542;13.426;2023-02-01T01:55:57;4.20;99.90
30047;DHT22;16878;52.542;13.426;2023-02-01T01:58:25;4.20;99.90
30047;DHT22;16878;52.542;13.426;2023-02-01T02:00:52;4.30;99.90
30047;DHT22;16878;52.542;13.426;2023-02-01T02:03:37;4.30;99.90
30047;DHT22;16878;52.542;13.426;2023-02-01T02:06:08;4.30;99.90
30047;DHT22;16878;52.542;13.426;2023-02-01T02:08:39;4.30;99.90
30047;DHT22;16878;52.542;13.426;2023-02-01T02:11:05;4.30;99.90
30047;DHT22;16878;52.542;13.426;2023-02-01T02:13:36;4.40;99.90
30047;DHT22;16878;52.542;13.426;2023-02-01T02:21:56;4.30;99.90
30047;DHT22;16878;52.542;13.426;2023-02-01T02:41:08;4.40;99.90
30047;DHT22;16878;52.542;13.426;2023-02-01T02:43:49;4.40;99.90
30047;DHT22;16878;52.542;13.426;2023-02-01T02:46:39;4.40;99.90
30047;DHT22;16878;52.542;13.426;2023-02-01T02:49:49;4.40;99.90
30047;DHT22;16878;52.542;13.426;2023-02-01T02:52:46;4.50;99.90
30047;DHT22;16878;52.542;13.426;2023-02-01T02:55:35;4.40;99.90
30047;DHT22;16878;52.542;13.426;2023-02-01T02:58:05;4.40;99.90
30047;DHT22;16878;52.542;13.426;2023-02-01T03:00:50;4.40;99.90
30047;DHT22;16878;52.542;13.426;2023-02-01T03:03:39;4.60;99.90
30047;DHT22;16878;52.542;13.426;2023-02-01T03:06:24;4.60;99.90
30047;DHT22;16878;52.542;13.426;2023-02-01T03:08:56;4.60;99.90
30047;DHT22;16878;52.542;13.426;2023-02-01T03:11:23;4.50;99.90
30047;DHT22;16878;52.542;13.426;2023-02-01T03:14:10;4.50;99.90
30047;DHT22;16878;52.542;13.426;2023-02-01T03:16:51;4.50;99.90
30047;DHT22;16878;52.542;13.426;2023-02-01T03:19:33;4.50;99.90
30047;DHT22;16878;52.542;13.426;2023-02-01T03:22:06;4.50;99.90
30047;DHT22;16878;52.542;13.426;2023-02-01T03:27:46;4.50;99.90
30047;DHT22;16878;52.542;13.426;2023-02-01T03:32:44;4.40;99.90
30047;DHT22;16878;52.542;13.426;2023-02-01T03:35:32;4.40;99.90
30047;DHT22;16878;52.542;13.426;2023-02-01T03:38:19;4.40;99.90
30047;DHT22;16878;52.542;13.426;2023-02-01T03:40:51;4.40;99.90
30047;DHT22;16878;52.542;13.426;2023-02-01T03:43:20;4.40;99.90
30047;DHT22;16878;52.542;13.426;2023-02-01T03:45:52;4.50;99.90
30047;DHT22;16878;52.542;13.426;2023-02-01T03:48:18;4.40;99.90
30047;DHT22;16878;52.542;13.426;2023-02-01T03:50:51;4.40;99.90
30047;DHT22;16878;52.542;13.426;2023-02-01T03:53:20;4.40;99.90
30047;DHT22;16878;52.542;13.426;2023-02-01T03:55:47;4.40;99.90
30047;DHT22;16878;52.542;13.426;2023-02-01T03:58:16;4.40;99.90
30047;DHT22;16878;52.542;13.426;2023-02-01T04:00:53;4.40;99.90
30047;DHT22;16878;52.542;13.426;2023-02-01T04:03:20;4.40;99.90
30047;DHT22;16878;52.542;13.426;2023-02-01T04:05:50;4.40;99.90
30047;DHT22;16878;52.542;13.426;2023-02-01T04:08:17;4.40;99.90
30047;DHT22;16878;52.542;13.426;2023-02-01T04:10:42;4.50;99.90
30047;DHT22;16878;52.542;13.426;2023-02-01T04:13:09;4.60;99.90
30047;DHT22;16878;52.542;13.426;2023-02-01T04:15:35;4.70;99.90
30047;DHT22;16878;52.542;13.426;2023-02-01T04:18:01;4.70;99.90
30047;DHT22;16878;52.542;13.426;2023-02-01T04:20:27;4.80;99.90
30047;DHT22;16878;52.542;13.426;2023-02-01T04:22:53;4.80;99.90
30047;DHT22;16878;52.542;13.426;2023-02-01T04:25:18;4.80;99.90
30047;DHT22;16878;52.542;13.426;2023-02-01T04:27:44;4.80;99.90
30047;DHT22;16878;52.542;13.426;2023-02-01T04:30:11;4.80;99.90
30047;DHT22;16878;52.542;13.426;2023-02-01T04:32:38;4.80;99.90
30047;DHT22;16878;52.542;13.426;2023-02-01T04:35:05;4.80;99.90
30047;DHT22;16878;52.542;13.426;2023-02-01T04:37:31;4.80;99.90
30047;DHT22;16878;52.542;13.426;2023-02-01T04:39:56;4.80;99.90
30047;DHT22;16878;52.542;13.426;2023-02-01T04:42:22;4.90;99.90
30047;DHT22;16878;52.542;13.426;2023-02-01T04:44:48;4.90;99.90
30047;DHT22;16878;52.542;13.426;2023-02-01T04:47:13;4.90;99.90
30047;DHT22;16878;52.542;13.426;2023-02-01T04:49:41;4.90;99.90
30047;DHT22;16878;52.542;13.426;2023-02-01T04:52:06;5.00;99.90
30047;DHT22;16878;52.542;13.426;2023-02-01T04:54:32;5.00;99.90
30047;DHT22;16878;52.542;13.426;2023-02-01T04:56:58;5.10;99.90
30047;DHT22;16878;52.542;13.426;2023-02-01T04:59:24;5.10;99.90
30047;DHT22;16878;52.542;13.426;2023-02-01T05:01:50;5.10;99.90
30047;DHT22;16878;52.542;13.426;2023-02-01T05:04:16;5.10;99.90
30047;DHT22;16878;52.542;13.426;2023-02-01T05:06:44;5.20;99.90
30047;DHT22;16878;52.542;13.426;2023-02-01T05:09:10;5.10;99.90
30047;DHT22;16878;52.542;13.426;2023-02-01T05:11:35;5.20;99.90
30047;DHT22;16878;52.542;13.426;2023-02-01T05:14:20;5.20;99.90
30047;DHT22;16878;52.542;13.426;2023-02-01T05:16:49;5.20;99.90
30047;DHT22;16878;52.542;13.426;2023-02-01T05:19:14;5.20;99.90
30047;DHT22;16878;52.542;13.426;2023-02-01T05:21:40;5.20;99.90
30047;DHT22;16878;52.542;13.426;2023-02-01T05:24:08;5.20;99.90
30047;DHT22;16878;52.542;13.426;2023-02-01T05:26:45;5.30;99.90
30047;DHT22;16878;52.542;13.426;2023-02-01T05:29:11;5.30;99.90
30047;DHT22;16878;52.542;13.426;2023-02-01T05:31:37;5.30;99.90
30047;DHT22;16878;52.542;13.426;2023-02-01T05:34:03;5.30;99.90
30047;DHT22;16878;52.542;13.426;2023-02-01T05:36:29;5.30;99.90
30047;DHT22;16878;52.542;13.426;2023-02-01T05:38:55;5.30;99.90
30047;DHT22;16878;52.542;13.426;2023-02-01T05:41:21;5.30;99.90
30047;DHT22;16878;52.542;13.426;2023-02-01T05:43:46;5.30;99.90
30047;DHT22;16878;52.542;13.426;2023-02-01T05:46:12;5.30;99.90
30047;DHT22;16878;52.542;13.426;2023-02-01T05:48:42;5.30;99.90
30047;DHT22;16878;52.542;13.426;2023-02-01T05:51:09;5.40;99.90
30047;DHT22;16878;52.542;13.426;2023-02-01T05:53:35;5.40;99.90
30047;DHT22;16878;52.542;13.426;2023-02-01T05:56:01;5.40;99.90
30047;DHT22;16878;52.542;13.426;2023-02-01T05:58:27;5.50;99.90
30047;DHT22;16878;52.542;13.426;2023-02-01T06:00:52;5.40;99.90
30047;DHT22;16878;52.542;13.426;2023-02-01T06:03:18;5.40;99.90
30047;DHT22;16878;52.542;13.426;2023-02-01T06:05:45;5.40;99.90
30047;DHT22;16878;52.542;13.426;2023-02-01T06:08:11;5.40;99.90
30047;DHT22;16878;52.542;13.426;2023-02-01T06:10:37;5.50;99.90
30047;DHT22;16878;52.542;13.426;2023-02-01T06:13:02;5.50;99.90
30047;DHT22;16878;52.542;13.426;2023-02-01T06:15:29;5.50;99.90
30047;DHT22;16878;52.542;13.426;2023-02-01T06:17:55;5.50;99.90
30047;DHT22;16878;52.542;13.426;2023-02-01T06:20:23;5.50;99.90
30047;DHT22;16878;52.542;13.426;2023-02-01T06:22:49;5.50;99.90
30047;DHT22;16878;52.542;13.426;2023-02-01T06:25:15;5.50;99.90
30047;DHT22;16878;52.542;13.426;2023-02-01T06:27:42;5.50;99.90
30047;DHT22;16878;52.542;13.426;2023-02-01T06:30:10;5.50;99.90
30047;DHT22;16878;52.542;13.426;2023-02-01T06:32:39;5.40;99.90
30047;DHT22;16878;52.542;13.426;2023-02-01T06:35:07;5.40;99.90
30047;DHT22;16878;52.542;13.426;2023-02-01T06:37:33;5.40;99.90
30047;DHT22;16878;52.542;13.426;2023-02-01T06:39:59;5.40;99.90
30047;DHT22;16878;52.542;13.426;2023-02-01T06:42:25;5.40;99.90
30047;DHT22;16878;52.542;13.426;2023-02-01T06:44:51;5.40;99.90
30047;DHT22;16878;52.542;13.426;2023-02-01T06:47:16;5.30;99.90
30047;DHT22;16878;52.542;13.426;2023-02-01T06:49:42;5.30;99.90
30047;DHT22;16878;52.542;13.426;2023-02-01T06:52:08;5.30;99.90
30047;DHT22;16878;52.542;13.426;2023-02-01T06:54:33;5.30;99.90
30047;DHT22;16878;52.542;13.426;2023-02-01T06:56:59;5.30;99.90
30047;DHT22;16878;52.542;13.426;2023-02-01T06:59:25;5.30;99.90
30047;DHT22;16878;52.542;13.426;2023-02-01T07:01:51;5.30;99.90
30047;DHT22;16878;52.542;13.426;2023-02-01T07:04:16;5.30;99.90
30047;DHT22;16878;52.542;13.426;2023-02-01T07:06:42;5.30;99.90
30047;DHT22;16878;52.542;13.426;2023-02-01T07:09:08;5.30;99.90
30047;DHT22;16878;52.542;13.426;2023-02-01T07:11:34;5.30;99.90
30047;DHT22;16878;52.542;13.426;2023-02-01T07:13:59;5.40;99.90
30047;DHT22;16878;52.542;13.426;2023-02-01T07:16:25;5.50;99.90
30047;DHT22;16878;52.542;13.426;2023-02-01T07:18:52;5.50;99.90
30047;DHT22;16878;52.542;13.426;2023-02-01T07:21:19;5.50;99.90
30047;DHT22;16878;52.542;13.426;2023-02-01T07:23:45;5.50;99.90
30047;DHT22;16878;52.542;13.426;2023-02-01T07:26:12;5.60;99.90
30047;DHT22;16878;52.542;13.426;2023-02-01T07:28:39;5.60;99.90
30047;DHT22;16878;52.542;13.426;2023-02-01T07:31:09;5.50;99.90
30047;DHT22;16878;52.542;13.426;2023-02-01T07:33:35;5.50;99.90
30047;DHT22;16878;52.542;13.426;2023-02-01T07:36:03;5.50;99.90
30047;DHT22;16878;52.542;13.426;2023-02-01T07:38:29;5.60;99.90
30047;DHT22;16878;52.542;13.426;2023-02-01T07:40:59;5.60;99.90
30047;DHT22;16878;52.542;13.426;2023-02-01T07:43:25;5.60;99.90
30047;DHT22;16878;52.542;13.426;2023-02-01T07:45:52;5.60;99.90
30047;DHT22;16878;52.542;13.426;2023-02-01T07:48:19;5.60;99.90
30047;DHT22;16878;52.542;13.426;2023-02-01T07:50:45;5.60;99.90
30047;DHT22;16878;52.542;13.426;2023-02-01T07:53:11;5.50;99.90
30047;DHT22;16878;52.542;13.426;2023-02-01T07:55:40;5.50;99.90
30047;DHT22;16878;52.542;13.426;2023-02-01T07:58:05;5.50;99.90
30047;DHT22;16878;52.542;13.426;2023-02-01T08:00:31;5.40;99.90
30047;DHT22;16878;52.542;13.426;2023-02-01T08:03:15;5.40;99.90
30047;DHT22;16878;52.542;13.426;2023-02-01T08:05:41;5.30;99.90
30047;DHT22;16878;52.542;13.426;2023-02-01T08:08:07;5.20;99.90
30047;DHT22;16878;52.542;13.426;2023-02-01T08:10:33;5.20;99.90
30047;DHT22;16878;52.542;13.426;2023-02-01T08:13:01;5.10;99.90
30047;DHT22;16878;52.542;13.426;2023-02-01T08:15:28;5.10;99.90
30047;DHT22;16878;52.542;13.426;2023-02-01T08:17:54;5.10;99.90
30047;DHT22;16878;52.542;13.426;2023-02-01T08:20:24;5.10;99.90
30047;DHT22;16878;52.542;13.426;2023-02-01T08:22:51;5.00;99.90
30047;DHT22;16878;52.542;13.426;2023-02-01T08:25:17;5.00;99.90
30047;DHT22;16878;52.542;13.426;2023-02-01T08:27:43;5.00;99.90
30047;DHT22;16878;52.542;13.426;2023-02-01T08:30:10;4.90;99.90
30047;DHT22;16878;52.542;13.426;2023-02-01T08:32:35;4.90;99.90
30047;DHT22;16878;52.542;13.426;2023-02-01T08:35:02;4.90;99.90
30047;DHT22;16878;52.542;13.426;2023-02-01T08:37:28;4.90;99.90
30047;DHT22;16878;52.542;13.426;2023-02-01T08:39:54;4.90;99.90
30047;DHT22;16878;52.542;13.426;2023-02-01T08:42:20;4.90;99.90
30047;DHT22;16878;52.542;13.426;2023-02-01T08:45:04;4.90;99.90
30047;DHT22;16878;52.542;13.426;2023-02-01T08:47:30;4.90;99.90
30047;DHT22;16878;52.542;13.426;2023-02-01T08:49:56;4.80;99.90
30047;DHT22;16878;52.542;13.426;2023-02-01T08:52:22;4.80;99.90
30047;DHT22;16878;52.542;13.426;2023-02-01T08:54:48;4.80;99.90
30047;DHT22;16878;52.542;13.426;2023-02-01T08:57:14;4.70;99.90
30047;DHT22;16878;52.542;13.426;2023-02-01T08:59:40;4.70;99.90
30047;DHT22;16878;52.542;13.426;2023-02-01T09:02:08;4.70;99.90
30047;DHT22;16878;52.542;13.426;2023-02-01T09:04:34;4.80;99.90
30047;DHT22;16878;52.542;13.426;2023-02-01T09:06:59;4.80;99.90
30047;DHT22;16878;52.542;13.426;2023-02-01T09:09:27;4.80;99.90
30047;DHT22;16878;52.542;13.426;2023-02-01T09:11:53;4.80;99.90
30047;DHT22;16878;52.542;13.426;2023-02-01T09:14:19;4.80;99.90
30047;DHT22;16878;52.542;13.426;2023-02-01T09:16:45;4.80;99.90
30047;DHT22;16878;52.542;13.426;2023-02-01T09:19:10;4.90;99.90
30047;DHT22;16878;52.542;13.426;2023-02-01T09:21:36;5.00;99.90
30047;DHT22;16878;52.542;13.426;2023-02-01T09:24:02;5.00;99.90
30047;DHT22;16878;52.542;13.426;2023-02-01T09:26:27;5.10;99.90
30047;DHT22;16878;52.542;13.426;2023-02-01T09:28:53;5.20;99.90
30047;DHT22;16878;52.542;13.426;2023-02-01T09:31:19;5.20;99.90
30047;DHT22;16878;52.542;13.426;2023-02-01T09:33:45;5.10;99.90
30047;DHT22;16878;52.542;13.426;2023-02-01T09:36:11;5.10;99.90
30047;DHT22;16878;52.542;13.426;2023-02-01T09:38:37;5.10;99.90
30047;DHT22;16878;52.542;13.426;2023-02-01T09:41:16;5.10;99.90
30047;DHT22;16878;52.542;13.426;2023-02-01T09:43:55;5.10;99.90
30047;DHT22;16878;52.542;13.426;2023-02-01T09:46:29;5.20;99.90
30047;DHT22;16878;52.542;13.426;2023-02-01T09:49:00;5.10;99.90
30047;DHT22;16878;52.542;13.426;2023-02-01T09:51:37;5.10;99.90
30047;DHT22;16878;52.542;13.426;2023-02-01T09:54:04;5.10;99.90
30047;DHT22;16878;52.542;13.426;2023-02-01T09:56:48;5.10;99.90
30047;DHT22;16878;52.542;13.426;2023-02-01T10:02:15;5.20;99.90
30047;DHT22;16878;52.542;13.426;2023-02-01T10:04:42;5.20;99.90
30047;DHT22;16878;52.542;13.426;2023-02-01T10:10:01;5.20;99.90
30047;DHT22;16878;52.542;13.426;2023-02-01T10:20:48;5.00;99.90
30047;DHT22;16878;52.542;13.426;2023-02-01T10:26:19;5.00;99.90
30047;DHT22;16878;52.542;13.426;2023-02-01T10:28:49;5.00;99.90
30047;DHT22;16878;52.542;13.426;2023-02-01T10:31:16;5.00;99.90
30047;DHT22;16878;52.542;13.426;2023-02-01T10:39:33;5.30;99.90
30047;DHT22;16878;52.542;13.426;2023-02-01T10:41:59;5.30;99.90
30047;DHT22;16878;52.542;13.426;2023-02-01T10:44:27;5.50;99.90
30047;DHT22;16878;52.542;13.426;2023-02-01T10:46:54;5.50;99.90
30047;DHT22;16878;52.542;13.426;2023-02-01T10:49:43;5.50;99.90
30047;DHT22;16878;52.542;13.426;2023-02-01T10:54:38;5.40;99.90
30047;DHT22;16878;52.542;13.426;2023-02-01T10:57:25;5.30;99.90
30047;DHT22;16878;52.542;13.426;2023-02-01T10:59:55;5.20;99.90
30047;DHT22;16878;52.542;13.426;2023-02-01T11:02:32;5.20;99.90
30047;DHT22;16878;52.542;13.426;2023-02-01T11:05:04;5.20;99.90
30047;DHT22;16878;52.542;13.426;2023-02-01T11:07:31;5.20;99.90
30047;DHT22;16878;52.542;13.426;2023-02-01T11:10:00;5.10;99.90
30047;DHT22;16878;52.542;13.426;2023-02-01T11:15:19;5.00;99.90
30047;DHT22;16878;52.542;13.426;2023-02-01T11:17:47;5.30;99.90
30047;DHT22;16878;52.542;13.426;2023-02-01T11:20:17;5.40;99.90
30047;DHT22;16878;52.542;13.426;2023-02-01T11:22:54;5.50;99.90
30047;DHT22;16878;52.542;13.426;2023-02-01T11:25:20;5.60;99.90
30047;DHT22;16878;52.542;13.426;2023-02-01T11:27:49;5.70;99.90
30047;DHT22;16878;52.542;13.426;2023-02-01T11:30:38;5.80;99.90
30047;DHT22;16878;52.542;13.426;2023-02-01T11:33:12;5.80;99.90
30047;DHT22;16878;52.542;13.426;2023-02-01T11:35:39;6.00;99.90
30047;DHT22;16878;52.542;13.426;2023-02-01T11:38:34;6.20;99.90
30047;DHT22;16878;52.542;13.426;2023-02-01T11:41:26;6.30;99.90
30047;DHT22;16878;52.542;13.426;2023-02-01T11:43:59;6.40;99.90
30047;DHT22;16878;52.542;13.426;2023-02-01T11:46:33;6.40;99.90
30047;DHT22;16878;52.542;13.426;2023-02-01T11:49:22;6.30;99.90
30047;DHT22;16878;52.542;13.426;2023-02-01T12:09:24;6.60;99.90
30047;DHT22;16878;52.542;13.426;2023-02-01T12:25:39;6.70;99.90
30047;DHT22;16878;52.542;13.426;2023-02-01T12:43:09;6.40;99.90
30047;DHT22;16878;52.542;13.426;2023-02-01T12:46:21;6.30;99.90
30047;DHT22;16878;52.542;13.426;2023-02-01T12:49:11;6.30;99.90
30047;DHT22;16878;52.542;13.426;2023-02-01T12:51:45;6.30;99.90
30047;DHT22;16878;52.542;13.426;2023-02-01T12:57:06;6.30;99.90
30047;DHT22;16878;52.542;13.426;2023-02-01T13:00:01;6.40;99.90
30047;DHT22;16878;52.542;13.426;2023-02-01T13:02:33;6.40;99.90
30047;DHT22;16878;52.542;13.426;2023-02-01T13:05:35;6.50;99.90
30047;DHT22;16878;52.542;13.426;2023-02-01T13:08:08;6.50;99.90
30047;DHT22;16878;52.542;13.426;2023-02-01T13:10:45;6.50;99.90
30047;DHT22;16878;52.542;13.426;2023-02-01T13:16:27;6.60;99.90
30047;DHT22;16878;52.542;13.426;2023-02-01T13:19:05;6.50;99.90
30047;DHT22;16878;52.542;13.426;2023-02-01T13:21:35;6.50;99.90
30047;DHT22;16878;52.542;13.426;2023-02-01T13:24:03;6.40;99.90
30047;DHT22;16878;52.542;13.426;2023-02-01T13:26:29;6.20;99.90
30047;DHT22;16878;52.542;13.426;2023-02-01T13:29:04;6.10;99.90
30047;DHT22;16878;52.542;13.426;2023-02-01T13:37:23;6.10;99.90
30047;DHT22;16878;52.542;13.426;2023-02-01T13:42:31;6.30;99.90
30047;DHT22;16878;52.542;13.426;2023-02-01T13:45:05;6.40;99.90
30047;DHT22;16878;52.542;13.426;2023-02-01T13:47:44;6.50;99.90
30047;DHT22;16878;52.542;13.426;2023-02-01T13:52:55;6.60;99.90
30047;DHT22;16878;52.542;13.426;2023-02-01T13:57:49;6.60;99.90
30047;DHT22;16878;52.542;13.426;2023-02-01T14:00:28;6.60;99.90
30047;DHT22;16878;52.542;13.426;2023-02-01T14:13:24;6.60;99.90
30047;DHT22;16878;52.542;13.426;2023-02-01T14:23:42;6.50;99.90
30047;DHT22;16878;52.542;13.426;2023-02-01T14:26:15;6.40;99.90
30047;DHT22;16878;52.542;13.426;2023-02-01T14:28:51;6.30;99.90
30047;DHT22;16878;52.542;13.426;2023-02-01T14:35:00;6.30;99.90
30047;DHT22;16878;52.542;13.426;2023-02-01T14:37:32;6.20;99.90
30047;DHT22;16878;52.542;13.426;2023-02-01T14:40:04;6.20;99.90
30047;DHT22;16878;52.542;13.426;2023-02-01T14:42:47;6.20;99.90
30047;DHT22;16878;52.542;13.426;2023-02-01T14:50:45;6.30;99.90
30047;DHT22;16878;52.542;13.426;2023-02-01T15:01:03;6.30;99.90
30047;DHT22;16878;52.542;13.426;2023-02-01T15:08:45;6.20;99.90
30047;DHT22;16878;52.542;13.426;2023-02-01T15:11:14;6.20;99.90
30047;DHT22;16878;52.542;13.426;2023-02-01T15:13:50;6.20;99.90
30047;DHT22;16878;52.542;13.426;2023-02-01T15:16:20;6.30;99.90
30047;DHT22;16878;52.542;13.426;2023-02-01T15:18:46;6.30;99.90
30047;DHT22;16878;52.542;13.426;2023-02-01T15:21:18;6.20;99.90
30047;DHT22;16878;52.542;13.426;2023-02-01T15:23:45;6.20;99.90
30047;DHT22;16878;52.542;13.426;2023-02-01T15:26:28;6.10;99.90
30047;DHT22;16878;52.542;13.426;2023-02-01T15:28:54;6.00;99.90
30047;DHT22;16878;52.542;13.426;2023-02-01T15:31:41;5.90;99.90
30047;DHT22;16878;52.542;13.426;2023-02-01T15:34:07;5.80;99.90
30047;DHT22;16878;52.542;13.426;2023-02-01T15:36:33;5.70;99.90
30047;DHT22;16878;52.542;13.426;2023-02-01T15:42:11;5.60;99.90
30047;DHT22;16878;52.542;13.426;2023-02-01T15:44:45;5.50;99.90
30047;DHT22;16878;52.542;13.426;2023-02-01T15:47:24;5.50;99.90
30047;DHT22;16878;52.542;13.426;2023-02-01T15:49:55;5.40;99.90
30047;DHT22;16878;52.542;13.426;2023-02-01T15:54:56;5.30;99.90
30047;DHT22;16878;52.542;13.426;2023-02-01T15:57:28;5.30;99.90
30047;DHT22;16878;52.542;13.426;2023-02-01T16:00:01;5.20;99.90
30047;DHT22;16878;52.542;13.426;2023-02-01T16:02:35;5.00;99.90
30047;DHT22;16878;52.542;13.426;2023-02-01T16:05:05;4.80;99.90
30047;DHT22;16878;52.542;13.426;2023-02-01T16:07:35;4.70;99.90
30047;DHT22;16878;52.542;13.426;2023-02-01T16:10:02;4.60;99.90
30047;DHT22;16878;52.542;13.426;2023-02-01T16:12:46;4.60;99.90
30047;DHT22;16878;52.542;13.426;2023-02-01T16:15:12;4.50;99.90
30047;DHT22;16878;52.542;13.426;2023-02-01T16:17:38;4.40;99.90
30047;DHT22;16878;52.542;13.426;2023-02-01T16:20:04;4.40;99.90
30047;DHT22;16878;52.542;13.426;2023-02-01T16:22:30;4.30;99.90
30047;DHT22;16878;52.542;13.426;2023-02-01T16:24:56;4.30;99.90
30047;DHT22;16878;52.542;13.426;2023-02-01T16:27:22;4.30;99.90
30047;DHT22;16878;52.542;13.426;2023-02-01T16:29:48;4.30;99.90
30047;DHT22;16878;52.542;13.426;2023-02-01T16:32:21;4.30;99.90
30047;DHT22;16878;52.542;13.426;2023-02-01T16:34:48;4.20;99.90
30047;DHT22;16878;52.542;13.426;2023-02-01T16:37:21;4.20;99.90
30047;DHT22;16878;52.542;13.426;2023-02-01T16:39:48;4.20;99.90
30047;DHT22;16878;52.542;13.426;2023-02-01T16:42:15;4.20;99.90
30047;DHT22;16878;52.542;13.426;2023-02-01T16:44:41;4.20;99.90
30047;DHT22;16878;52.542;13.426;2023-02-01T16:47:21;4.20;99.90
30047;DHT22;16878;52.542;13.426;2023-02-01T16:49:47;4.10;99.90
30047;DHT22;16878;52.542;13.426;2023-02-01T16:52:19;4.10;99.90
30047;DHT22;16878;52.542;13.426;2023-02-01T16:54:46;4.10;99.90
30047;DHT22;16878;52.542;13.426;2023-02-01T16:57:14;4.10;99.90
30047;DHT22;16878;52.542;13.426;2023-02-01T16:59:41;4.10;99.90
30047;DHT22;16878;52.542;13.426;2023-02-01T17:02:19;4.10;99.90
30047;DHT22;16878;52.542;13.426;2023-02-01T17:04:46;4.10;99.90
30047;DHT22;16878;52.542;13.426;2023-02-01T17:07:15;4.10;99.90
30047;DHT22;16878;52.542;13.426;2023-02-01T17:09:42;4.10;99.90
30047;DHT22;16878;52.542;13.426;2023-02-01T17:14:48;4.20;99.90
30047;DHT22;16878;52.542;13.426;2023-02-01T17:17:16;4.20;99.90
30047;DHT22;16878;52.542;13.426;2023-02-01T17:19:43;4.30;99.90
30047;DHT22;16878;52.542;13.426;2023-02-01T17:22:09;4.30;99.90
30047;DHT22;16878;52.542;13.426;2023-02-01T17:24:39;4.30;99.90
30047;DHT22;16878;52.542;13.426;2023-02-01T17:27:04;4.30;99.90
30047;DHT22;16878;52.542;13.426;2023-02-01T17:29:30;4.30;99.90
30047;DHT22;16878;52.542;13.426;2023-02-01T17:31:56;4.30;99.90
30047;DHT22;16878;52.542;13.426;2023-02-01T17:34:24;4.40;99.90
30047;DHT22;16878;52.542;13.426;2023-02-01T17:36:50;4.30;99.90
30047;DHT22;16878;52.542;13.426;2023-02-01T17:39:19;4.30;99.90
30047;DHT22;16878;52.542;13.426;2023-02-01T17:42:04;4.30;99.90
30047;DHT22;16878;52.542;13.426;2023-02-01T17:44:31;4.40;99.90
30047;DHT22;16878;52.542;13.426;2023-02-01T17:46:57;4.40;99.90
30047;DHT22;16878;52.542;13.426;2023-02-01T17:49:24;4.40;99.90
30047;DHT22;16878;52.542;13.426;2023-02-01T17:51:50;4.40;99.90
30047;DHT22;16878;52.542;13.426;2023-02-01T17:54:17;4.40;99.90
30047;DHT22;16878;52.542;13.426;2023-02-01T17:56:44;4.50;99.90
30047;DHT22;16878;52.542;13.426;2023-02-01T17:59:10;4.40;99.90
30047;DHT22;16878;52.542;13.426;2023-02-01T18:01:37;4.40;99.90
30047;DHT22;16878;52.542;13.426;2023-02-01T18:04:12;4.50;99.90
30047;DHT22;16878;52.542;13.426;2023-02-01T18:06:39;4.50;99.90
30047;DHT22;16878;52.542;13.426;2023-02-01T18:09:05;4.50;99.90
30047;DHT22;16878;52.542;13.426;2023-02-01T18:11:31;4.50;99.90
30047;DHT22;16878;52.542;13.426;2023-02-01T18:13:58;4.50;99.90
30047;DHT22;16878;52.542;13.426;2023-02-01T18:16:26;4.50;99.90
30047;DHT22;16878;52.542;13.426;2023-02-01T18:18:52;4.50;99.90
30047;DHT22;16878;52.542;13.426;2023-02-01T18:21:20;4.50;99.90
30047;DHT22;16878;52.542;13.426;2023-02-01T18:23:49;4.60;99.90
30047;DHT22;16878;52.542;13.426;2023-02-01T18:26:17;4.60;99.90
30047;DHT22;16878;52.542;13.426;2023-02-01T18:28:43;4.60;99.90
30047;DHT22;16878;52.542;13.426;2023-02-01T18:31:27;4.60;99.90
30047;DHT22;16878;52.542;13.426;2023-02-01T18:33:55;4.70;99.90
30047;DHT22;16878;52.542;13.426;2023-02-01T18:36:21;4.60;99.90
30047;DHT22;16878;52.542;13.426;2023-02-01T18:38:48;4.70;99.90
30047;DHT22;16878;52.542;13.426;2023-02-01T18:41:15;4.70;99.90